createdAt,value
2023-05-25T00:02:19.041Z,7.22
2023-05-25T00:04:55.600Z,7.20
2023-05-25T00:07:23.056Z,7.16
2023-05-25T00:09:56.500Z,7.12
2023-05-25T00:12:23.960Z,7.18
2023-05-25T00:14:57.605Z,7.26
2023-05-25T00:17:25.023Z,7.20
2023-05-25T00:19:59.630Z,7.03
2023-05-25T00:22:29.470Z,6.93
2023-05-25T00:25:03.468Z,6.94
2023-05-25T00:27:31.277Z,7.13
2023-05-25T00:29:59.201Z,6.91
2023-05-25T00:32:33.532Z,6.88
2023-05-25T00:35:09.724Z,6.84
2023-05-25T00:37:43.305Z,6.90
2023-05-25T00:40:21.640Z,6.75
2023-05-25T00:42:58.386Z,6.81
2023-05-25T00:45:25.786Z,6.96
2023-05-25T00:48:01.450Z,6.86
2023-05-25T00:50:43.218Z,6.78
2023-05-25T00:53:18.424Z,6.81
2023-05-25T00:56:09.367Z,6.81
2023-05-25T00:58:46.546Z,6.79
2023-05-25T01:01:17.476Z,7.01
2023-05-25T01:04:02.454Z,6.86
2023-05-25T01:06:33.756Z,6.89
2023-05-25T01:09:12.897Z,6.88
2023-05-25T01:11:50.353Z,6.92
2023-05-25T01:14:28.589Z,6.97
2023-05-25T01:16:56.869Z,6.84
2023-05-25T01:19:30.993Z,6.93
2023-05-25T01:22:25.054Z,6.88
2023-05-25T01:25:03.851Z,6.63
2023-05-25T01:27:46.721Z,6.72
2023-05-25T01:30:23.716Z,6.48
2023-05-25T01:32:51.560Z,6.55
2023-05-25T01:35:32.645Z,6.32
2023-05-25T01:38:06.531Z,6.28
2023-05-25T01:40:46.581Z,6.35
2023-05-25T01:43:20.534Z,6.24
2023-05-25T01:45:48.385Z,6.31
2023-05-25T01:48:33.553Z,6.41
2023-05-25T01:51:23.587Z,6.26
2023-05-25T01:53:58.969Z,6.09
2023-05-25T01:56:39.963Z,6.09
2023-05-25T01:59:15.810Z,6.23
2023-05-25T02:01:53.824Z,6.24
2023-05-25T02:04:24.769Z,6.05
2023-05-25T02:07:06.525Z,6.04
2023-05-25T02:09:40.552Z,6.09
2023-05-25T02:12:14.640Z,6.34
2023-05-25T02:14:55.410Z,6.42
2023-05-25T02:17:34.709Z,6.41
2023-05-25T02:20:08.710Z,6.42
2023-05-25T02:22:44.539Z,6.40
2023-05-25T02:25:12.164Z,6.46
2023-05-25T02:27:48.537Z,6.49
2023-05-25T02:30:16.153Z,6.48
2023-05-25T02:32:50.518Z,6.57
2023-05-25T02:35:18.202Z,6.62
2023-05-25T02:37:52.498Z,6.75
2023-05-25T02:40:32.453Z,6.91
2023-05-25T02:42:59.565Z,6.88
2023-05-25T02:45:33.758Z,6.83
2023-05-25T02:48:01.198Z,6.99
2023-05-25T02:50:38.235Z,7.05
2023-05-25T02:53:08.794Z,7.16
2023-05-25T02:55:42.786Z,7.23
2023-05-25T02:58:15.335Z,7.28
2023-05-25T03:00:49.600Z,7.23
2023-05-25T03:03:25.938Z,7.18
2023-05-25T03:05:56.394Z,7.20
2023-05-25T03:08:33.172Z,7.33
2023-05-25T03:11:07.032Z,7.29
2023-05-25T03:13:41.989Z,7.13
2023-05-25T03:16:12.301Z,7.13
2023-05-25T03:18:48.587Z,7.27
2023-05-25T03:21:18.618Z,7.10
2023-05-25T03:23:56.982Z,7.20
2023-05-25T03:26:26.210Z,7.26
2023-05-25T03:28:59.583Z,7.06
2023-05-25T03:31:33.725Z,7.06
2023-05-25T03:34:10.574Z,6.94
2023-05-25T03:36:45.629Z,7.08
2023-05-25T03:39:26.514Z,7.03
2023-05-25T03:41:57.206Z,6.77
2023-05-25T03:44:30.651Z,6.84
2023-05-25T03:46:57.918Z,6.70
2023-05-25T03:49:39.253Z,6.61
2023-05-25T03:52:13.485Z,6.69
2023-05-25T03:54:43.382Z,6.67
2023-05-25T03:57:22.400Z,6.58
2023-05-25T03:59:52.241Z,6.58
2023-05-25T04:02:25.700Z,6.66
2023-05-25T04:04:54.037Z,6.67
2023-05-25T04:07:35.895Z,6.54
2023-05-25T04:10:06.029Z,6.52
2023-05-25T04:12:40.607Z,6.61
2023-05-25T04:15:16.738Z,6.82
2023-05-25T04:17:51.590Z,6.67
2023-05-25T04:20:22.409Z,6.86
2023-05-25T04:22:56.673Z,6.99
2023-05-25T04:25:29.367Z,6.88
2023-05-25T04:28:05.106Z,7.11
2023-05-25T04:30:35.028Z,7.00
2023-05-25T04:33:03.252Z,7.17
2023-05-25T04:35:38.734Z,7.28
2023-05-25T04:38:27.745Z,7.29
2023-05-25T04:41:11.409Z,7.33
2023-05-25T04:43:40.415Z,7.28
2023-05-25T04:46:20.716Z,7.28
2023-05-25T04:48:48.587Z,7.18
2023-05-25T04:51:22.629Z,7.27
2023-05-25T04:53:50.468Z,7.23
2023-05-25T04:56:24.636Z,7.26
2023-05-25T04:58:52.959Z,7.40
2023-05-25T05:01:35.849Z,7.50
2023-05-25T05:04:03.214Z,7.54
2023-05-25T05:06:44.229Z,7.51
2023-05-25T05:09:18.522Z,7.53
2023-05-25T05:11:46.437Z,7.60
2023-05-25T05:14:20.642Z,7.71
2023-05-25T05:16:54.809Z,7.68
2023-05-25T05:19:23.290Z,7.78
2023-05-25T05:21:50.533Z,7.95
2023-05-25T05:24:24.922Z,8.20
2023-05-25T05:26:58.989Z,8.27
2023-05-25T05:29:34.605Z,8.35
2023-05-25T05:32:01.845Z,8.26
2023-05-25T05:34:36.575Z,8.54
2023-05-25T05:37:03.676Z,8.46
2023-05-25T05:39:43.741Z,8.62
2023-05-25T05:42:13.419Z,8.82
2023-05-25T05:44:47.583Z,8.98
2023-05-25T05:47:21.685Z,9.19
2023-05-25T05:49:48.966Z,9.45
2023-05-25T05:52:22.601Z,9.48
2023-05-25T05:54:58.645Z,9.58
2023-05-25T05:57:28.646Z,9.78
2023-05-25T06:00:02.678Z,9.88
2023-05-25T06:02:33.421Z,10.01
2023-05-25T06:05:08.772Z,10.08
2023-05-25T06:07:39.535Z,10.24
2023-05-25T06:10:14.107Z,10.47
2023-05-25T06:12:41.370Z,10.58
2023-05-25T06:15:12.353Z,10.84
2023-05-25T06:17:46.619Z,10.87
2023-05-25T06:20:15.545Z,11.04
2023-05-25T06:22:52.742Z,11.04
2023-05-25T06:25:24.219Z,11.20
2023-05-25T06:27:57.717Z,11.20
2023-05-25T06:30:31.729Z,11.21
2023-05-25T06:32:59.356Z,11.10
2023-05-25T06:35:33.711Z,11.25
2023-05-25T06:38:10.057Z,11.27
2023-05-25T06:40:49.826Z,11.39
2023-05-25T06:43:20.764Z,11.54
2023-05-25T06:45:57.573Z,11.58
2023-05-25T06:48:27.555Z,11.73
2023-05-25T06:51:01.677Z,11.98
2023-05-25T06:53:37.864Z,11.99
2023-05-25T06:56:11.559Z,12.21
2023-05-25T06:58:39.064Z,12.37
2023-05-25T07:01:13.100Z,12.44
2023-05-25T07:03:40.770Z,12.47
2023-05-25T07:06:14.608Z,12.51
2023-05-25T07:08:41.923Z,12.47
2023-05-25T07:11:13.065Z,12.59
2023-05-25T07:13:47.672Z,12.38
2023-05-25T07:16:15.464Z,12.49
2023-05-25T07:18:51.694Z,12.53
2023-05-25T07:21:30.744Z,12.66
2023-05-25T07:24:11.269Z,12.66
2023-05-25T07:26:44.704Z,12.72
2023-05-25T07:29:19.679Z,12.85
2023-05-25T07:31:47.234Z,12.92
2023-05-25T07:34:22.718Z,13.22
2023-05-25T07:37:01.681Z,13.41
2023-05-25T07:39:36.179Z,13.39
2023-05-25T07:42:12.714Z,13.41
2023-05-25T07:44:46.783Z,13.45
2023-05-25T07:47:23.673Z,13.47
2023-05-25T07:49:53.527Z,13.51
2023-05-25T07:52:30.800Z,13.71
2023-05-25T07:54:58.131Z,13.97
2023-05-25T07:57:32.017Z,13.99
2023-05-25T07:59:59.231Z,14.29
2023-05-25T08:02:32.790Z,14.27
2023-05-25T08:05:04.594Z,14.33
2023-05-25T08:07:42.948Z,14.26
2023-05-25T08:10:12.346Z,14.29
2023-05-25T08:12:49.671Z,14.29
2023-05-25T08:15:21.542Z,14.44
2023-05-25T08:17:57.742Z,14.29
2023-05-25T08:20:28.544Z,14.29
2023-05-25T08:23:03.614Z,14.13
2023-05-25T08:25:30.661Z,14.16
2023-05-25T08:27:58.720Z,14.00
2023-05-25T08:30:32.659Z,14.06
2023-05-25T08:32:59.846Z,14.04
2023-05-25T08:35:35.727Z,14.26
2023-05-25T08:38:23.844Z,14.40
2023-05-25T08:41:21.661Z,14.58
2023-05-25T08:44:00.322Z,14.90
2023-05-25T08:46:40.755Z,14.92
2023-05-25T08:49:13.386Z,14.97
2023-05-25T08:52:01.535Z,14.94
2023-05-25T08:54:41.185Z,15.09
2023-05-25T08:57:22.656Z,15.09
2023-05-25T09:00:05.657Z,15.27
2023-05-25T09:02:41.407Z,15.46
2023-05-25T09:05:16.711Z,15.36
2023-05-25T09:07:51.676Z,15.35
2023-05-25T09:10:25.677Z,15.55
2023-05-25T09:13:06.609Z,15.63
2023-05-25T09:15:39.963Z,15.71
2023-05-25T09:18:13.685Z,15.82
2023-05-25T09:20:41.458Z,15.77
2023-05-25T09:23:16.632Z,15.71
2023-05-25T09:25:51.614Z,15.78
2023-05-25T09:30:58.755Z,15.92
2023-05-25T09:33:26.536Z,16.01
2023-05-25T09:36:00.705Z,16.05
2023-05-25T09:38:33.890Z,16.27
2023-05-25T09:41:13.745Z,16.41
2023-05-25T09:43:54.723Z,16.29
2023-05-25T09:46:28.964Z,16.26
2023-05-25T09:49:02.752Z,16.12
2023-05-25T09:51:33.432Z,16.36
2023-05-25T09:54:11.732Z,16.49
2023-05-25T09:56:44.669Z,16.63
2023-05-25T09:59:12.509Z,16.56
2023-05-25T10:01:46.051Z,16.54
2023-05-25T10:04:16.866Z,16.60
2023-05-25T10:06:52.765Z,16.71
2023-05-25T10:09:20.777Z,16.69
2023-05-25T10:11:57.685Z,16.67
2023-05-25T10:14:29.312Z,16.87
2023-05-25T10:17:05.709Z,17.00
2023-05-25T10:19:43.378Z,17.14
2023-05-25T10:22:31.659Z,17.05
2023-05-25T10:25:14.783Z,17.03
2023-05-25T10:27:52.224Z,16.86
2023-05-25T10:30:20.548Z,16.91
2023-05-25T10:32:54.713Z,16.94
2023-05-25T10:35:22.205Z,16.88
2023-05-25T10:37:58.749Z,16.59
2023-05-25T10:40:39.666Z,16.59
2023-05-25T10:43:07.250Z,16.59
2023-05-25T10:45:41.782Z,16.78
2023-05-25T10:48:08.820Z,17.22
2023-05-25T10:50:43.708Z,17.42
2023-05-25T10:53:14.348Z,17.26
2023-05-25T10:55:55.761Z,17.16
2023-05-25T10:58:24.038Z,17.01
2023-05-25T11:01:13.789Z,16.88
2023-05-25T11:04:05.964Z,16.91
2023-05-25T11:06:46.849Z,16.93
2023-05-25T11:09:27.245Z,16.94
2023-05-25T11:12:02.750Z,17.07
2023-05-25T11:14:40.302Z,17.30
2023-05-25T11:17:17.698Z,17.36
2023-05-25T11:20:06.790Z,17.26
2023-05-25T11:22:44.774Z,17.20
2023-05-25T11:25:37.114Z,17.32
2023-05-25T11:28:15.725Z,17.38
2023-05-25T11:30:43.272Z,17.51
2023-05-25T11:33:16.919Z,17.57
2023-05-25T11:35:45.846Z,17.72
2023-05-25T11:38:19.755Z,17.98
2023-05-25T11:40:53.479Z,17.98
2023-05-25T11:43:27.774Z,17.85
2023-05-25T11:45:58.009Z,17.74
2023-05-25T11:48:31.831Z,17.58
2023-05-25T11:51:12.764Z,17.38
2023-05-25T11:53:52.842Z,17.46
2023-05-25T11:56:35.440Z,17.75
2023-05-25T11:59:03.290Z,17.89
2023-05-25T12:01:38.830Z,18.08
2023-05-25T12:04:10.927Z,18.20
2023-05-25T12:06:44.811Z,18.16
2023-05-25T12:09:13.258Z,18.22
2023-05-25T12:11:46.831Z,18.22
2023-05-25T12:14:14.340Z,18.11
2023-05-25T12:16:48.788Z,18.21
2023-05-25T12:19:17.157Z,18.29
2023-05-25T12:21:52.053Z,18.39
2023-05-25T12:24:22.037Z,18.33
2023-05-25T12:26:56.857Z,18.24
2023-05-25T12:29:31.891Z,18.15
2023-05-25T12:32:13.030Z,18.40
2023-05-25T12:34:40.197Z,18.69
2023-05-25T12:37:25.876Z,18.91
2023-05-25T12:40:00.215Z,19.02
2023-05-25T12:42:33.924Z,19.10
2023-05-25T12:45:03.545Z,19.01
2023-05-25T12:47:38.794Z,18.74
2023-05-25T12:50:13.569Z,18.80
2023-05-25T12:52:52.839Z,19.19
2023-05-25T12:55:36.796Z,19.74
2023-05-25T12:58:06.591Z,19.84
2023-05-25T13:00:47.745Z,19.69
2023-05-25T13:03:18.106Z,19.29
2023-05-25T13:05:52.924Z,18.87
2023-05-25T13:08:19.933Z,19.08
2023-05-25T13:10:57.898Z,19.38
2023-05-25T13:13:31.849Z,20.02
2023-05-25T13:16:04.920Z,20.02
2023-05-25T13:18:32.434Z,19.74
2023-05-25T13:21:05.971Z,19.86
2023-05-25T13:23:32.964Z,20.27
2023-05-25T13:26:06.811Z,20.62
2023-05-25T13:28:39.891Z,20.81
2023-05-25T13:31:07.170Z,21.08
2023-05-25T13:33:40.933Z,20.96
2023-05-25T13:36:14.975Z,21.08
2023-05-25T13:38:48.844Z,21.17
2023-05-25T13:41:22.383Z,21.07
2023-05-25T13:43:55.809Z,20.93
2023-05-25T13:46:34.746Z,20.87
2023-05-25T13:49:08.826Z,20.68
2023-05-25T13:51:35.943Z,20.70
2023-05-25T13:54:09.868Z,21.03
2023-05-25T13:56:36.904Z,21.35
2023-05-25T13:59:03.707Z,21.40
2023-05-25T14:01:37.013Z,21.34
2023-05-25T14:04:04.933Z,21.62
2023-05-25T14:06:38.965Z,21.71
2023-05-25T14:09:06.043Z,21.79
2023-05-25T14:11:39.858Z,21.71
2023-05-25T14:14:19.489Z,21.89
2023-05-25T14:17:00.874Z,21.95
2023-05-25T14:19:28.277Z,21.82
2023-05-25T14:22:12.666Z,21.60
2023-05-25T14:24:41.721Z,21.56
2023-05-25T14:27:15.970Z,21.46
2023-05-25T14:29:42.893Z,21.59
2023-05-25T14:32:15.888Z,21.64
2023-05-25T14:34:49.906Z,21.58
2023-05-25T14:37:17.052Z,21.68
2023-05-25T14:39:50.863Z,21.74
2023-05-25T14:42:24.064Z,21.77
2023-05-25T14:44:57.850Z,21.76
2023-05-25T14:47:24.733Z,21.73
2023-05-25T14:49:57.859Z,21.64
2023-05-25T14:52:24.747Z,21.52
2023-05-25T14:54:57.916Z,21.48
2023-05-25T14:57:24.749Z,21.58
2023-05-25T14:59:57.947Z,21.37
2023-05-25T15:02:24.932Z,21.28
2023-05-25T15:05:00.944Z,21.41
2023-05-25T15:07:33.863Z,21.60
2023-05-25T15:10:00.896Z,21.51
2023-05-25T15:12:33.865Z,21.43
2023-05-25T15:15:06.903Z,21.37
2023-05-25T15:17:39.883Z,21.43
2023-05-25T15:20:07.281Z,21.40
2023-05-25T15:22:40.899Z,21.13
2023-05-25T15:25:08.080Z,21.26
2023-05-25T15:27:41.963Z,21.26
2023-05-25T15:30:09.697Z,21.32
2023-05-25T15:32:43.041Z,21.27
2023-05-25T15:35:10.437Z,21.11
2023-05-25T15:37:44.004Z,20.86
2023-05-25T15:40:17.902Z,20.92
2023-05-25T15:42:50.976Z,20.81
2023-05-25T15:45:18.772Z,20.91
2023-05-25T15:47:45.727Z,20.87
2023-05-25T15:50:18.988Z,20.63
2023-05-25T15:52:46.955Z,20.67
2023-05-25T15:55:21.356Z,20.44
2023-05-25T15:57:48.327Z,20.43
2023-05-25T16:00:22.058Z,20.36
2023-05-25T16:02:49.116Z,20.22
2023-05-25T16:05:23.076Z,20.16
2023-05-25T16:07:49.943Z,20.19
2023-05-25T16:10:23.984Z,20.03
2023-05-25T16:12:51.108Z,19.95
2023-05-25T16:15:24.992Z,19.91
2023-05-25T16:17:52.234Z,19.82
2023-05-25T16:20:26.045Z,19.73
2023-05-25T16:23:02.498Z,19.60
2023-05-25T16:25:29.862Z,19.59
2023-05-25T16:32:05.901Z,19.41
2023-05-25T17:01:14.074Z,18.36
2023-05-25T17:03:41.068Z,18.32
2023-05-25T17:06:17.991Z,18.22
2023-05-25T17:08:44.774Z,18.02
2023-05-25T17:11:17.938Z,17.77
2023-05-25T17:13:44.813Z,17.58
2023-05-25T17:16:18.131Z,17.29
2023-05-25T17:18:45.156Z,17.26
2023-05-25T17:21:22.073Z,17.10
2023-05-25T17:23:49.599Z,17.11
2023-05-25T17:26:22.954Z,17.08
2023-05-25T17:28:55.976Z,16.99
2023-05-25T17:31:23.189Z,16.96
2023-05-25T17:33:56.950Z,16.82
2023-05-25T17:36:30.011Z,16.73
2023-05-25T17:38:57.892Z,16.65
2023-05-25T17:41:31.151Z,16.53
2023-05-25T17:43:58.009Z,16.45
2023-05-25T17:46:32.094Z,16.35
2023-05-25T17:49:04.795Z,16.30
2023-05-25T17:51:38.055Z,16.26
2023-05-25T17:54:11.005Z,16.20
2023-05-25T17:56:37.844Z,16.12
2023-05-25T17:59:11.154Z,15.98
2023-05-25T18:01:44.670Z,15.91
2023-05-25T18:04:18.071Z,15.85
2023-05-25T18:06:45.293Z,15.69
2023-05-25T18:09:19.030Z,15.61
2023-05-25T18:11:46.680Z,15.52
2023-05-25T18:14:13.777Z,15.48
2023-05-25T18:16:53.244Z,15.35
2023-05-25T18:19:27.060Z,15.23
2023-05-25T18:21:53.878Z,15.12
2023-05-25T18:24:27.105Z,14.97
2023-05-25T18:27:06.054Z,14.88
2023-05-25T18:29:39.109Z,14.78
2023-05-25T18:32:15.028Z,14.69
2023-05-25T18:34:44.453Z,14.56
2023-05-25T18:37:42.135Z,14.51
2023-05-25T18:40:16.784Z,14.38
2023-05-25T18:42:50.076Z,14.20
2023-05-25T18:45:23.683Z,14.18
2023-05-25T18:47:58.243Z,13.90
2023-05-25T18:50:43.153Z,13.96
2023-05-25T18:53:21.361Z,13.67
2023-05-25T18:55:48.921Z,13.76
2023-05-25T18:58:24.771Z,13.69
2023-05-25T19:01:05.106Z,13.46
2023-05-25T19:03:58.559Z,13.50
2023-05-25T19:06:31.274Z,13.25
2023-05-25T19:09:05.152Z,13.23
2023-05-25T19:11:32.652Z,13.07
2023-05-25T19:14:07.052Z,13.18
2023-05-25T19:16:37.548Z,13.09
2023-05-25T19:19:14.120Z,12.93
2023-05-25T19:21:45.480Z,12.95
2023-05-25T19:24:12.763Z,12.76
2023-05-25T19:26:49.577Z,12.61
2023-05-25T19:29:24.165Z,12.61
2023-05-25T19:31:51.421Z,12.65
2023-05-25T19:34:25.025Z,12.43
2023-05-25T19:37:07.573Z,12.27
2023-05-25T19:39:38.230Z,12.31
2023-05-25T19:42:13.113Z,12.31
2023-05-25T19:44:41.420Z,12.05
2023-05-25T19:47:15.101Z,12.17
2023-05-25T19:49:43.130Z,12.08
2023-05-25T19:52:17.120Z,11.86
2023-05-25T19:54:45.592Z,11.79
2023-05-25T19:57:35.113Z,11.66
2023-05-25T20:00:26.947Z,11.65
2023-05-25T20:03:01.264Z,11.61
2023-05-25T20:05:28.815Z,11.56
2023-05-25T20:08:03.067Z,11.65
2023-05-25T20:10:39.107Z,11.46
2023-05-25T20:13:20.053Z,11.41
2023-05-25T20:15:48.779Z,11.47
2023-05-25T20:18:24.221Z,11.38
2023-05-25T20:20:54.519Z,11.13
2023-05-25T20:23:21.954Z,11.28
2023-05-25T20:25:56.136Z,11.19
2023-05-25T20:28:30.080Z,11.00
2023-05-25T20:31:04.241Z,11.13
2023-05-25T20:33:31.629Z,11.03
2023-05-25T20:36:08.307Z,11.01
2023-05-25T20:38:38.638Z,10.92
2023-05-25T20:41:14.810Z,10.81
2023-05-25T20:43:49.088Z,10.69
2023-05-25T20:46:23.133Z,10.72
2023-05-25T20:48:51.363Z,10.80
2023-05-25T20:51:26.265Z,10.77
2023-05-25T20:53:54.273Z,10.58
2023-05-25T20:56:31.048Z,10.47
2023-05-25T20:59:05.205Z,10.50
2023-05-25T21:01:52.228Z,10.34
2023-05-25T21:04:19.653Z,10.45
2023-05-25T21:06:46.986Z,10.31
2023-05-25T21:09:21.212Z,10.19
2023-05-25T21:11:48.949Z,10.09
2023-05-25T21:14:23.094Z,10.03
2023-05-25T21:16:50.386Z,10.00
2023-05-25T21:19:24.182Z,10.01
2023-05-25T21:21:52.088Z,9.89
2023-05-25T21:24:22.236Z,9.94
2023-05-25T21:26:56.065Z,9.85
2023-05-25T21:29:30.104Z,9.91
2023-05-25T21:32:02.544Z,10.00
2023-05-25T21:34:36.085Z,9.77
2023-05-25T21:37:05.606Z,9.71
2023-05-25T21:39:32.976Z,9.86
2023-05-25T21:42:15.968Z,9.67
2023-05-25T21:44:46.504Z,9.60
2023-05-25T21:47:24.244Z,9.66
2023-05-25T21:50:05.193Z,9.59
2023-05-25T21:52:35.296Z,9.68
2023-05-25T21:55:02.819Z,9.49
2023-05-25T21:57:37.450Z,9.50
2023-05-25T22:00:06.852Z,9.42
2023-05-25T22:02:50.263Z,9.53
2023-05-25T22:05:31.323Z,9.49
2023-05-25T22:08:05.433Z,9.46
2023-05-25T22:10:42.113Z,9.30
2023-05-25T22:13:18.720Z,9.23
2023-05-25T22:15:46.097Z,9.12
2023-05-25T22:18:25.652Z,9.27
2023-05-25T22:20:53.334Z,9.10
2023-05-25T22:23:27.237Z,9.00
2023-05-25T22:25:58.839Z,8.98
2023-05-25T22:28:26.235Z,8.93
2023-05-25T22:31:00.228Z,9.01
2023-05-25T22:33:40.256Z,8.82
2023-05-25T22:36:07.730Z,8.75
2023-05-25T22:38:44.256Z,8.72
2023-05-25T22:41:14.602Z,8.66
2023-05-25T22:43:48.256Z,8.61
2023-05-25T22:46:32.025Z,8.56
2023-05-25T22:49:01.646Z,8.55
2023-05-25T22:51:41.687Z,8.69
2023-05-25T22:54:10.364Z,8.45
2023-05-25T22:56:53.254Z,8.49
2023-05-25T22:59:24.713Z,8.47
2023-05-25T23:02:05.735Z,8.42
2023-05-25T23:04:35.802Z,8.40
2023-05-25T23:07:17.189Z,8.27
2023-05-25T23:09:51.107Z,8.23
2023-05-25T23:12:25.305Z,8.35
2023-05-25T23:14:53.756Z,8.07
2023-05-25T23:17:27.093Z,8.12
2023-05-25T23:22:43.289Z,8.04
2023-05-25T23:25:17.327Z,7.91
2023-05-25T23:27:47.696Z,7.94
2023-05-25T23:30:24.246Z,7.93
2023-05-25T23:32:52.134Z,7.83
2023-05-25T23:35:29.218Z,8.00
2023-05-25T23:37:57.881Z,7.80
2023-05-25T23:40:32.534Z,7.78
2023-05-25T23:43:02.687Z,7.65
2023-05-25T23:45:37.380Z,7.60
2023-05-25T23:48:07.558Z,7.62
2023-05-25T23:50:42.282Z,7.72
2023-05-25T23:53:16.210Z,7.51
2023-05-25T23:55:43.739Z,7.48
2023-05-25T23:58:19.372Z,7.44
